sensor_id;sensor_type;location;lat;lon;timestamp;pressure;altitude;pressure_sealevel;temperature;humidity
61757;BME280;57225;61.460;24.060;2023-04-01T00:02:22;99400.34;;;-5.99;94.12
61757;BME280;57225;61.460;24.060;2023-04-01T00:05:07;99400.00;;;-6.06;94.39
61757;BME280;57225;61.460;24.060;2023-04-01T00:07:51;99399.38;;;-6.03;94.49
61757;BME280;57225;61.460;24.060;2023-04-01T00:10:36;99404.50;;;-6.02;94.97
61757;BME280;57225;61.460;24.060;2023-04-01T00:13:21;99386.09;;;-6.14;94.43
61757;BME280;57225;61.460;24.060;2023-04-01T00:16:06;99402.84;;;-6.12;95.16
61757;BME280;57225;61.460;24.060;2023-04-01T00:18:51;99401.38;;;-6.18;96.18
61757;BME280;57225;61.460;24.060;2023-04-01T00:21:35;99390.44;;;-6.35;95.99
61757;BME280;57225;61.460;24.060;2023-04-01T00:24:20;99395.06;;;-6.35;97.02
61757;BME280;57225;61.460;24.060;2023-04-01T00:27:23;99397.34;;;-6.29;96.50
61757;BME280;57225;61.460;24.060;2023-04-01T00:30:08;99398.19;;;-6.42;97.53
61757;BME280;57225;61.460;24.060;2023-04-01T00:32:53;99382.59;;;-6.36;97.50
61757;BME280;57225;61.460;24.060;2023-04-01T00:35:38;99398.19;;;-6.20;95.86
61757;BME280;57225;61.460;24.060;2023-04-01T00:38:22;99397.25;;;-6.15;96.11
61757;BME280;57225;61.460;24.060;2023-04-01T00:41:07;99404.59;;;-6.16;95.79
61757;BME280;57225;61.460;24.060;2023-04-01T00:43:52;99408.25;;;-6.20;96.05
61757;BME280;57225;61.460;24.060;2023-04-01T00:46:37;99408.84;;;-6.23;96.91
61757;BME280;57225;61.460;24.060;2023-04-01T00:49:28;99411.75;;;-6.20;96.86
61757;BME280;57225;61.460;24.060;2023-04-01T00:52:17;99413.97;;;-6.22;96.41
61757;BME280;57225;61.460;24.060;2023-04-01T00:55:04;99418.22;;;-6.29;96.66
61757;BME280;57225;61.460;24.060;2023-04-01T00:57:53;99411.75;;;-6.42;97.57
61757;BME280;57225;61.460;24.060;2023-04-01T01:00:39;99411.25;;;-6.44;97.44
61757;BME280;57225;61.460;24.060;2023-04-01T01:03:24;99415.81;;;-6.53;98.03
61757;BME280;57225;61.460;24.060;2023-04-01T01:06:16;99414.03;;;-6.58;98.67
61757;BME280;57225;61.460;24.060;2023-04-01T01:09:25;99416.00;;;-6.50;98.08
61757;BME280;57225;61.460;24.060;2023-04-01T01:12:30;99411.50;;;-6.54;98.37
61757;BME280;57225;61.460;24.060;2023-04-01T01:18:29;99417.00;;;-6.45;98.59
61757;BME280;57225;61.460;24.060;2023-04-01T01:25:09;99417.66;;;-6.40;98.05
61757;BME280;57225;61.460;24.060;2023-04-01T01:28:05;99421.22;;;-6.31;97.84
61757;BME280;57225;61.460;24.060;2023-04-01T01:31:11;99409.91;;;-6.33;97.95
61757;BME280;57225;61.460;24.060;2023-04-01T01:34:20;99413.31;;;-6.19;96.87
61757;BME280;57225;61.460;24.060;2023-04-01T01:37:14;99414.13;;;-6.18;96.51
61757;BME280;57225;61.460;24.060;2023-04-01T01:40:03;99414.13;;;-6.18;96.65
61757;BME280;57225;61.460;24.060;2023-04-01T01:42:51;99416.16;;;-6.24;96.77
61757;BME280;57225;61.460;24.060;2023-04-01T01:45:42;99416.91;;;-6.32;97.51
61757;BME280;57225;61.460;24.060;2023-04-01T01:48:29;99386.00;;;-6.53;98.15
61757;BME280;57225;61.460;24.060;2023-04-01T01:51:14;99419.28;;;-6.39;97.79
61757;BME280;57225;61.460;24.060;2023-04-01T01:53:59;99426.66;;;-6.53;98.36
61757;BME280;57225;61.460;24.060;2023-04-01T01:56:47;99403.00;;;-6.61;98.75
61757;BME280;57225;61.460;24.060;2023-04-01T01:59:35;99430.03;;;-6.47;98.51
61757;BME280;57225;61.460;24.060;2023-04-01T02:02:22;99429.75;;;-6.46;98.37
61757;BME280;57225;61.460;24.060;2023-04-01T02:05:14;99432.09;;;-6.53;98.40
61757;BME280;57225;61.460;24.060;2023-04-01T02:08:13;99432.13;;;-6.67;99.47
61757;BME280;57225;61.460;24.060;2023-04-01T02:11:03;99427.47;;;-6.53;98.85
61757;BME280;57225;61.460;24.060;2023-04-01T02:13:52;99437.66;;;-6.50;97.95
61757;BME280;57225;61.460;24.060;2023-04-01T02:16:44;99437.63;;;-6.58;98.76
61757;BME280;57225;61.460;24.060;2023-04-01T02:19:34;99434.75;;;-6.75;99.30
61757;BME280;57225;61.460;24.060;2023-04-01T02:22:24;99442.56;;;-6.74;99.75
61757;BME280;57225;61.460;24.060;2023-04-01T02:25:13;99431.31;;;-6.67;99.34
61757;BME280;57225;61.460;24.060;2023-04-01T02:27:58;99442.28;;;-6.72;99.47
61757;BME280;57225;61.460;24.060;2023-04-01T02:30:44;99451.13;;;-6.80;99.85
61757;BME280;57225;61.460;24.060;2023-04-01T02:33:30;99443.72;;;-6.88;100.00
61757;BME280;57225;61.460;24.060;2023-04-01T02:36:15;99445.03;;;-7.00;100.00
61757;BME280;57225;61.460;24.060;2023-04-01T02:39:00;99436.00;;;-6.95;100.00
61757;BME280;57225;61.460;24.060;2023-04-01T02:41:46;99443.34;;;-6.96;100.00
61757;BME280;57225;61.460;24.060;2023-04-01T02:44:31;99432.94;;;-7.02;100.00
61757;BME280;57225;61.460;24.060;2023-04-01T02:47:15;99457.25;;;-6.88;100.00
61757;BME280;57225;61.460;24.060;2023-04-01T02:49:59;99450.66;;;-6.96;100.00
61757;BME280;57225;61.460;24.060;2023-04-01T02:52:44;99446.94;;;-7.00;100.00
61757;BME280;57225;61.460;24.060;2023-04-01T02:55:28;99457.47;;;-6.99;100.00
61757;BME280;57225;61.460;24.060;2023-04-01T02:58:14;99462.31;;;-6.96;100.00
61757;BME280;57225;61.460;24.060;2023-04-01T03:00:58;99463.41;;;-6.97;100.00
61757;BME280;57225;61.460;24.060;2023-04-01T03:03:43;99460.69;;;-6.83;99.69
61757;BME280;57225;61.460;24.060;2023-04-01T03:06:27;99461.44;;;-6.82;99.67
61757;BME280;57225;61.460;24.060;2023-04-01T03:09:12;99460.47;;;-6.86;99.76
61757;BME280;57225;61.460;24.060;2023-04-01T03:11:56;99470.31;;;-6.91;100.00
61757;BME280;57225;61.460;24.060;2023-04-01T03:14:41;99465.28;;;-6.83;99.51
61757;BME280;57225;61.460;24.060;2023-04-01T03:17:26;99469.81;;;-6.93;99.92
61757;BME280;57225;61.460;24.060;2023-04-01T03:20:11;99468.41;;;-6.90;99.74
61757;BME280;57225;61.460;24.060;2023-04-01T03:22:55;99472.09;;;-6.86;99.64
61757;BME280;57225;61.460;24.060;2023-04-01T03:25:40;99478.91;;;-6.88;100.00
61757;BME280;57225;61.460;24.060;2023-04-01T03:28:24;99473.03;;;-6.91;100.00
61757;BME280;57225;61.460;24.060;2023-04-01T03:31:09;99479.81;;;-6.79;99.29
61757;BME280;57225;61.460;24.060;2023-04-01T03:33:54;99461.41;;;-7.05;99.25
61757;BME280;57225;61.460;24.060;2023-04-01T03:36:38;99491.59;;;-6.98;99.75
61757;BME280;57225;61.460;24.060;2023-04-01T03:39:23;99495.69;;;-7.00;100.00
61757;BME280;57225;61.460;24.060;2023-04-01T03:42:07;99492.09;;;-6.96;100.00
61757;BME280;57225;61.460;24.060;2023-04-01T03:44:52;99485.47;;;-6.89;100.00
61757;BME280;57225;61.460;24.060;2023-04-01T03:47:36;99487.50;;;-7.09;100.00
61757;BME280;57225;61.460;24.060;2023-04-01T03:50:20;99489.28;;;-7.18;100.00
61757;BME280;57225;61.460;24.060;2023-04-01T03:53:05;99493.31;;;-7.29;100.00
61757;BME280;57225;61.460;24.060;2023-04-01T03:55:49;99501.53;;;-7.34;100.00
61757;BME280;57225;61.460;24.060;2023-04-01T03:58:35;99494.00;;;-7.37;100.00
61757;BME280;57225;61.460;24.060;2023-04-01T04:01:21;99504.63;;;-7.41;100.00
61757;BME280;57225;61.460;24.060;2023-04-01T04:04:06;99491.00;;;-7.49;100.00
61757;BME280;57225;61.460;24.060;2023-04-01T04:06:50;99501.81;;;-7.36;100.00
61757;BME280;57225;61.460;24.060;2023-04-01T04:09:35;99505.44;;;-7.13;100.00
61757;BME280;57225;61.460;24.060;2023-04-01T04:12:19;99512.66;;;-7.22;100.00
61757;BME280;57225;61.460;24.060;2023-04-01T04:15:04;99508.44;;;-7.28;100.00
61757;BME280;57225;61.460;24.060;2023-04-01T04:17:48;99511.84;;;-7.09;100.00
61757;BME280;57225;61.460;24.060;2023-04-01T04:20:33;99507.84;;;-6.98;100.00
61757;BME280;57225;61.460;24.060;2023-04-01T04:23:17;99509.91;;;-6.95;100.00
61757;BME280;57225;61.460;24.060;2023-04-01T04:26:06;99516.25;;;-6.99;100.00
61757;BME280;57225;61.460;24.060;2023-04-01T04:28:51;99517.06;;;-6.99;100.00
61757;BME280;57225;61.460;24.060;2023-04-01T04:31:35;99521.38;;;-6.98;100.00
61757;BME280;57225;61.460;24.060;2023-04-01T04:34:20;99515.16;;;-6.84;100.00
61757;BME280;57225;61.460;24.060;2023-04-01T04:37:06;99528.06;;;-6.68;100.00
61757;BME280;57225;61.460;24.060;2023-04-01T04:39:50;99528.25;;;-6.64;99.63
61757;BME280;57225;61.460;24.060;2023-04-01T04:42:35;99530.66;;;-6.63;99.84
61757;BME280;57225;61.460;24.060;2023-04-01T04:45:19;99534.66;;;-6.60;99.36
61757;BME280;57225;61.460;24.060;2023-04-01T04:48:04;99530.44;;;-6.53;99.07
61757;BME280;57225;61.460;24.060;2023-04-01T04:50:49;99539.56;;;-6.62;99.90
61757;BME280;57225;61.460;24.060;2023-04-01T04:53:34;99536.16;;;-6.54;99.68
61757;BME280;57225;61.460;24.060;2023-04-01T04:56:22;99533.41;;;-6.40;98.53
61757;BME280;57225;61.460;24.060;2023-04-01T04:59:09;99541.44;;;-6.13;96.56
61757;BME280;57225;61.460;24.060;2023-04-01T05:01:53;99547.06;;;-5.87;95.14
61757;BME280;57225;61.460;24.060;2023-04-01T05:04:38;99541.34;;;-5.55;92.96
61757;BME280;57225;61.460;24.060;2023-04-01T05:07:22;99546.88;;;-4.98;90.03
61757;BME280;57225;61.460;24.060;2023-04-01T05:10:07;99548.47;;;-4.97;88.69
61757;BME280;57225;61.460;24.060;2023-04-01T05:12:51;99557.47;;;-4.88;88.36
61757;BME280;57225;61.460;24.060;2023-04-01T05:15:36;99549.56;;;-4.59;88.62
61757;BME280;57225;61.460;24.060;2023-04-01T05:18:21;99557.09;;;-4.30;86.35
61757;BME280;57225;61.460;24.060;2023-04-01T05:21:11;99546.75;;;-4.19;84.43
61757;BME280;57225;61.460;24.060;2023-04-01T05:23:56;99546.25;;;-3.87;84.05
61757;BME280;57225;61.460;24.060;2023-04-01T05:26:40;99548.16;;;-3.79;83.21
61757;BME280;57225;61.460;24.060;2023-04-01T05:29:26;99543.59;;;-3.32;81.75
61757;BME280;57225;61.460;24.060;2023-04-01T05:32:10;99541.09;;;-3.16;81.42
61757;BME280;57225;61.460;24.060;2023-04-01T05:34:55;99544.09;;;-2.92;79.54
61757;BME280;57225;61.460;24.060;2023-04-01T05:37:39;99553.69;;;-2.56;78.40
61757;BME280;57225;61.460;24.060;2023-04-01T05:40:24;99540.03;;;-2.56;78.37
61757;BME280;57225;61.460;24.060;2023-04-01T05:43:09;99562.41;;;-2.71;77.50
61757;BME280;57225;61.460;24.060;2023-04-01T05:45:53;99561.69;;;-2.89;79.17
61757;BME280;57225;61.460;24.060;2023-04-01T05:48:39;99558.84;;;-2.93;78.78
61757;BME280;57225;61.460;24.060;2023-04-01T05:51:24;99575.47;;;-3.23;81.05
61757;BME280;57225;61.460;24.060;2023-04-01T05:54:08;99571.03;;;-2.99;80.69
61757;BME280;57225;61.460;24.060;2023-04-01T05:56:53;99559.72;;;-3.18;81.19
61757;BME280;57225;61.460;24.060;2023-04-01T05:59:37;99559.31;;;-2.61;79.39
61757;BME280;57225;61.460;24.060;2023-04-01T06:02:22;99577.69;;;-3.17;81.66
61757;BME280;57225;61.460;24.060;2023-04-01T06:05:28;99584.06;;;-3.13;82.86
61757;BME280;57225;61.460;24.060;2023-04-01T06:08:15;99578.75;;;-3.09;82.13
61757;BME280;57225;61.460;24.060;2023-04-01T06:11:22;99579.31;;;-3.25;83.13
61757;BME280;57225;61.460;24.060;2023-04-01T06:17:43;99587.03;;;-3.35;84.14
61757;BME280;57225;61.460;24.060;2023-04-01T06:23:33;99577.88;;;-3.31;84.95
61757;BME280;57225;61.460;24.060;2023-04-01T06:26:34;99577.88;;;-3.31;84.86
61757;BME280;57225;61.460;24.060;2023-04-01T06:29:46;99574.09;;;-3.00;85.20
61757;BME280;57225;61.460;24.060;2023-04-01T06:36:13;99588.75;;;-2.75;83.27
61757;BME280;57225;61.460;24.060;2023-04-01T06:56:28;99590.41;;;-1.62;80.31
61757;BME280;57225;61.460;24.060;2023-04-01T06:59:22;99603.16;;;-1.33;78.90
61757;BME280;57225;61.460;24.060;2023-04-01T07:02:24;99603.13;;;-0.88;77.47
61757;BME280;57225;61.460;24.060;2023-04-01T07:05:11;99611.81;;;-0.86;76.48
61757;BME280;57225;61.460;24.060;2023-04-01T07:07:59;99610.94;;;-0.66;76.70
61757;BME280;57225;61.460;24.060;2023-04-01T07:10:53;99591.31;;;-0.80;75.63
61757;BME280;57225;61.460;24.060;2023-04-01T07:13:41;99617.09;;;-0.32;75.76
61757;BME280;57225;61.460;24.060;2023-04-01T07:16:36;99615.50;;;-0.58;75.14
61757;BME280;57225;61.460;24.060;2023-04-01T07:19:44;99598.06;;;-0.41;75.11
61757;BME280;57225;61.460;24.060;2023-04-01T07:22:35;99612.28;;;-0.11;75.28
61757;BME280;57225;61.460;24.060;2023-04-01T07:25:29;99617.09;;;-0.08;74.87
61757;BME280;57225;61.460;24.060;2023-04-01T07:28:16;99618.19;;;0.03;74.25
61757;BME280;57225;61.460;24.060;2023-04-01T07:31:23;99625.28;;;0.04;74.39
61757;BME280;57225;61.460;24.060;2023-04-01T07:34:23;99627.19;;;0.56;73.54
61757;BME280;57225;61.460;24.060;2023-04-01T07:49:50;99629.31;;;0.90;71.83
61757;BME280;57225;61.460;24.060;2023-04-01T07:56:15;99636.38;;;1.35;69.95
61757;BME280;57225;61.460;24.060;2023-04-01T07:59:17;99643.81;;;1.18;70.86
61757;BME280;57225;61.460;24.060;2023-04-01T08:02:19;99646.56;;;1.18;71.96
61757;BME280;57225;61.460;24.060;2023-04-01T08:14:59;99642.50;;;1.75;69.65
61757;BME280;57225;61.460;24.060;2023-04-01T08:18:06;99642.28;;;1.99;68.13
61757;BME280;57225;61.460;24.060;2023-04-01T08:21:01;99642.91;;;2.28;68.72
61757;BME280;57225;61.460;24.060;2023-04-01T08:23:49;99640.41;;;2.03;69.90
61757;BME280;57225;61.460;24.060;2023-04-01T08:26:39;99645.41;;;1.98;68.57
61757;BME280;57225;61.460;24.060;2023-04-01T08:29:44;99643.38;;;2.30;67.52
61757;BME280;57225;61.460;24.060;2023-04-01T08:32:39;99641.09;;;2.70;65.70
61757;BME280;57225;61.460;24.060;2023-04-01T08:35:31;99647.38;;;2.52;66.65
61757;BME280;57225;61.460;24.060;2023-04-01T08:38:24;99650.94;;;2.52;65.40
61757;BME280;57225;61.460;24.060;2023-04-01T08:41:36;99649.50;;;2.58;65.13
61757;BME280;57225;61.460;24.060;2023-04-01T08:44:46;99653.03;;;2.59;64.93
61757;BME280;57225;61.460;24.060;2023-04-01T08:47:59;99658.19;;;2.25;66.62
61757;BME280;57225;61.460;24.060;2023-04-01T09:13:17;99656.94;;;3.15;64.12
61757;BME280;57225;61.460;24.060;2023-04-01T09:19:38;99668.63;;;2.90;61.01
61757;BME280;57225;61.460;24.060;2023-04-01T09:22:41;99662.34;;;2.54;60.87
61757;BME280;57225;61.460;24.060;2023-04-01T09:25:45;99664.59;;;2.49;59.60
61757;BME280;57225;61.460;24.060;2023-04-01T09:31:56;99678.22;;;2.61;56.23
61757;BME280;57225;61.460;24.060;2023-04-01T09:34:55;99673.16;;;2.82;57.06
61757;BME280;57225;61.460;24.060;2023-04-01T09:40:52;99667.84;;;2.54;57.74
61757;BME280;57225;61.460;24.060;2023-04-01T09:47:00;99665.91;;;2.74;56.85
61757;BME280;57225;61.460;24.060;2023-04-01T09:53:28;99673.44;;;3.15;57.47
61757;BME280;57225;61.460;24.060;2023-04-01T09:56:27;99692.06;;;2.64;58.03
61757;BME280;57225;61.460;24.060;2023-04-01T10:00:18;99691.56;;;2.59;58.45
61757;BME280;57225;61.460;24.060;2023-04-01T10:15:29;99698.72;;;2.63;56.51
61757;BME280;57225;61.460;24.060;2023-04-01T10:21:47;99709.84;;;2.51;56.99
61757;BME280;57225;61.460;24.060;2023-04-01T10:34:10;99708.44;;;2.76;56.30
61757;BME280;57225;61.460;24.060;2023-04-01T10:46:48;99714.50;;;2.86;57.19
61757;BME280;57225;61.460;24.060;2023-04-01T10:59:21;99721.63;;;3.06;56.43
61757;BME280;57225;61.460;24.060;2023-04-01T11:18:07;99713.50;;;3.32;54.49
61757;BME280;57225;61.460;24.060;2023-04-01T11:31:03;99720.44;;;3.45;52.72
61757;BME280;57225;61.460;24.060;2023-04-01T11:34:16;99726.66;;;3.42;51.29
61757;BME280;57225;61.460;24.060;2023-04-01T11:44:03;99730.94;;;3.40;51.13
61757;BME280;57225;61.460;24.060;2023-04-01T11:47:07;99732.78;;;3.32;51.57
61757;BME280;57225;61.460;24.060;2023-04-01T11:50:11;99733.72;;;3.62;52.96
61757;BME280;57225;61.460;24.060;2023-04-01T11:56:00;99739.38;;;3.70;50.25
61757;BME280;57225;61.460;24.060;2023-04-01T12:17:51;99754.34;;;3.30;50.84
61757;BME280;57225;61.460;24.060;2023-04-01T12:21:00;99751.88;;;3.44;51.05
61757;BME280;57225;61.460;24.060;2023-04-01T12:38:43;99753.28;;;3.54;49.66
61757;BME280;57225;61.460;24.060;2023-04-01T12:45:07;99759.31;;;3.63;50.47
61757;BME280;57225;61.460;24.060;2023-04-01T12:51:32;99760.41;;;3.78;47.33
61757;BME280;57225;61.460;24.060;2023-04-01T13:11:53;99779.13;;;3.69;45.52
61757;BME280;57225;61.460;24.060;2023-04-01T13:14:50;99777.19;;;3.31;46.32
61757;BME280;57225;61.460;24.060;2023-04-01T13:20:43;99780.44;;;3.55;46.64
61757;BME280;57225;61.460;24.060;2023-04-01T13:23:37;99774.22;;;3.39;47.41
61757;BME280;57225;61.460;24.060;2023-04-01T13:29:36;99781.31;;;3.59;47.68
61757;BME280;57225;61.460;24.060;2023-04-01T13:32:40;99782.09;;;3.79;48.09
61757;BME280;57225;61.460;24.060;2023-04-01T13:44:56;99791.41;;;3.33;47.73
61757;BME280;57225;61.460;24.060;2023-04-01T13:51:10;99795.97;;;3.44;47.98
61757;BME280;57225;61.460;24.060;2023-04-01T13:54:28;99800.63;;;3.40;47.86
61757;BME280;57225;61.460;24.060;2023-04-01T14:00:42;99795.41;;;3.16;49.45
61757;BME280;57225;61.460;24.060;2023-04-01T14:12:47;99812.34;;;3.37;48.85
61757;BME280;57225;61.460;24.060;2023-04-01T14:15:44;99824.25;;;2.87;50.58
61757;BME280;57225;61.460;24.060;2023-04-01T14:18:46;99825.59;;;2.77;49.72
61757;BME280;57225;61.460;24.060;2023-04-01T14:21:46;99835.59;;;2.86;49.27
61757;BME280;57225;61.460;24.060;2023-04-01T14:24:57;99835.00;;;2.76;48.20
61757;BME280;57225;61.460;24.060;2023-04-01T14:27:54;99834.13;;;2.72;48.35
61757;BME280;57225;61.460;24.060;2023-04-01T14:34:11;99837.06;;;2.64;49.66
61757;BME280;57225;61.460;24.060;2023-04-01T14:40:56;99840.72;;;2.52;50.96
61757;BME280;57225;61.460;24.060;2023-04-01T14:47:28;99852.03;;;2.66;48.21
61757;BME280;57225;61.460;24.060;2023-04-01T14:53:12;99850.19;;;2.55;50.69
61757;BME280;57225;61.460;24.060;2023-04-01T14:56:02;99867.78;;;2.50;50.08
61757;BME280;57225;61.460;24.060;2023-04-01T14:58:50;99854.28;;;2.45;51.80
61757;BME280;57225;61.460;24.060;2023-04-01T15:01:47;99875.31;;;2.53;48.90
61757;BME280;57225;61.460;24.060;2023-04-01T15:04:47;99873.63;;;2.33;49.81
61757;BME280;57225;61.460;24.060;2023-04-01T15:22:19;99889.09;;;2.10;53.03
61757;BME280;57225;61.460;24.060;2023-04-01T15:28:51;99896.72;;;2.00;51.59
61757;BME280;57225;61.460;24.060;2023-04-01T15:53:34;99938.41;;;1.75;50.75
61757;BME280;57225;61.460;24.060;2023-04-01T16:00:25;99944.25;;;1.61;51.19
61757;BME280;57225;61.460;24.060;2023-04-01T16:21:48;99986.09;;;1.06;53.23
61757;BME280;57225;61.460;24.060;2023-04-01T16:24:41;99983.22;;;1.02;52.29
61757;BME280;57225;61.460;24.060;2023-04-01T16:27:42;99992.38;;;0.94;53.72
61757;BME280;57225;61.460;24.060;2023-04-01T16:30:38;100001.97;;;0.88;51.74
61757;BME280;57225;61.460;24.060;2023-04-01T16:42:56;100017.41;;;0.48;54.07
61757;BME280;57225;61.460;24.060;2023-04-01T16:49:02;100007.63;;;0.26;54.21
61757;BME280;57225;61.460;24.060;2023-04-01T16:54:51;100035.13;;;0.17;53.76
61757;BME280;57225;61.460;24.060;2023-04-01T16:57:56;100046.34;;;0.04;56.07
61757;BME280;57225;61.460;24.060;2023-04-01T17:00:51;100049.09;;;0.04;54.72
61757;BME280;57225;61.460;24.060;2023-04-01T17:03:41;100051.63;;;0.09;54.16
61757;BME280;57225;61.460;24.060;2023-04-01T17:06:38;100051.72;;;0.00;54.32
61757;BME280;57225;61.460;24.060;2023-04-01T17:13:11;100069.22;;;-0.13;54.95
61757;BME280;57225;61.460;24.060;2023-04-01T17:16:13;100066.31;;;-0.17;55.20
61757;BME280;57225;61.460;24.060;2023-04-01T17:22:33;100090.19;;;-0.47;55.38
61757;BME280;57225;61.460;24.060;2023-04-01T17:33:05;100098.63;;;-0.60;55.11
61757;BME280;57225;61.460;24.060;2023-04-01T17:35:58;100102.03;;;-0.63;55.18
61757;BME280;57225;61.460;24.060;2023-04-01T17:41:52;100115.13;;;-0.86;56.88
61757;BME280;57225;61.460;24.060;2023-04-01T17:48:03;100122.41;;;-0.99;56.52
61757;BME280;57225;61.460;24.060;2023-04-01T17:54:23;100139.34;;;-1.23;60.36
61757;BME280;57225;61.460;24.060;2023-04-01T18:01:02;100129.53;;;-1.32;57.95
61757;BME280;57225;61.460;24.060;2023-04-01T18:03:57;100137.59;;;-1.36;58.00
61757;BME280;57225;61.460;24.060;2023-04-01T18:07:14;100143.22;;;-1.32;58.51
61757;BME280;57225;61.460;24.060;2023-04-01T18:22:39;100160.13;;;-1.73;60.40
61757;BME280;57225;61.460;24.060;2023-04-01T18:25:30;100150.16;;;-1.69;59.45
61757;BME280;57225;61.460;24.060;2023-04-01T18:31:18;100176.69;;;-1.61;58.70
61757;BME280;57225;61.460;24.060;2023-04-01T18:34:18;100178.13;;;-1.55;58.31
61757;BME280;57225;61.460;24.060;2023-04-01T18:37:22;100171.03;;;-1.56;58.73
61757;BME280;57225;61.460;24.060;2023-04-01T18:40:28;100171.69;;;-1.50;58.41
61757;BME280;57225;61.460;24.060;2023-04-01T18:46:21;100187.09;;;-1.80;60.95
61757;BME280;57225;61.460;24.060;2023-04-01T18:49:29;100196.13;;;-1.71;59.99
61757;BME280;57225;61.460;24.060;2023-04-01T18:58:21;100200.75;;;-1.80;59.56
61757;BME280;57225;61.460;24.060;2023-04-01T19:01:23;100202.06;;;-1.69;59.19
61757;BME280;57225;61.460;24.060;2023-04-01T19:04:20;100203.00;;;-1.74;59.54
61757;BME280;57225;61.460;24.060;2023-04-01T19:10:26;100218.56;;;-1.83;59.97
61757;BME280;57225;61.460;24.060;2023-04-01T19:16:42;100229.84;;;-1.84;60.50
61757;BME280;57225;61.460;24.060;2023-04-01T19:25:54;100244.22;;;-2.01;61.52
61757;BME280;57225;61.460;24.060;2023-04-01T19:32:14;100254.00;;;-2.09;62.02
61757;BME280;57225;61.460;24.060;2023-04-01T19:44:27;100258.97;;;-2.11;60.80
61757;BME280;57225;61.460;24.060;2023-04-01T19:47:46;100268.28;;;-2.12;61.53
61757;BME280;57225;61.460;24.060;2023-04-01T19:50:52;100274.66;;;-2.25;61.31
61757;BME280;57225;61.460;24.060;2023-04-01T19:57:25;100287.19;;;-2.24;61.20
61757;BME280;57225;61.460;24.060;2023-04-01T20:00:36;100287.09;;;-2.41;62.49
61757;BME280;57225;61.460;24.060;2023-04-01T20:12:31;100300.81;;;-2.77;63.91
61757;BME280;57225;61.460;24.060;2023-04-01T20:15:31;100300.50;;;-2.75;63.96
61757;BME280;57225;61.460;24.060;2023-04-01T20:36:30;100338.28;;;-3.05;66.36
61757;BME280;57225;61.460;24.060;2023-04-01T20:39:38;100335.69;;;-3.10;65.82
61757;BME280;57225;61.460;24.060;2023-04-01T20:45:40;100340.13;;;-3.14;65.95
61757;BME280;57225;61.460;24.060;2023-04-01T20:58:13;100365.56;;;-3.05;65.64
61757;BME280;57225;61.460;24.060;2023-04-01T21:07:28;100370.50;;;-3.07;65.97
61757;BME280;57225;61.460;24.060;2023-04-01T21:10:30;100384.75;;;-3.10;65.39
61757;BME280;57225;61.460;24.060;2023-04-01T21:13:30;100393.03;;;-3.15;66.16
61757;BME280;57225;61.460;24.060;2023-04-01T21:28:22;100406.19;;;-3.31;67.30
61757;BME280;57225;61.460;24.060;2023-04-01T21:43:49;100421.50;;;-3.35;67.70
61757;BME280;57225;61.460;24.060;2023-04-01T21:49:51;100423.03;;;-3.42;68.10
61757;BME280;57225;61.460;24.060;2023-04-01T22:08:34;100435.03;;;-3.43;68.79
61757;BME280;57225;61.460;24.060;2023-04-01T22:11:23;100439.25;;;-3.65;71.04
61757;BME280;57225;61.460;24.060;2023-04-01T22:14:21;100446.19;;;-3.72;69.99
61757;BME280;57225;61.460;24.060;2023-04-01T22:17:27;100417.41;;;-3.92;71.60
61757;BME280;57225;61.460;24.060;2023-04-01T22:23:29;100446.88;;;-3.94;74.42
61757;BME280;57225;61.460;24.060;2023-04-01T22:26:27;100457.03;;;-3.99;72.65
61757;BME280;57225;61.460;24.060;2023-04-01T22:29:30;100456.13;;;-3.95;71.39
61757;BME280;57225;61.460;24.060;2023-04-01T22:32:31;100459.53;;;-4.03;72.21
61757;BME280;57225;61.460;24.060;2023-04-01T22:35:33;100464.00;;;-3.93;70.66
61757;BME280;57225;61.460;24.060;2023-04-01T22:42:05;100484.31;;;-3.86;70.95
61757;BME280;57225;61.460;24.060;2023-04-01T22:48:40;100484.25;;;-3.99;71.64
61757;BME280;57225;61.460;24.060;2023-04-01T22:51:45;100486.31;;;-4.10;72.54
61757;BME280;57225;61.460;24.060;2023-04-01T22:54:48;100501.19;;;-4.21;72.60
61757;BME280;57225;61.460;24.060;2023-04-01T23:00:43;100507.72;;;-4.22;72.72
61757;BME280;57225;61.460;24.060;2023-04-01T23:03:31;100513.53;;;-4.29;72.97
61757;BME280;57225;61.460;24.060;2023-04-01T23:06:24;100514.22;;;-4.37;73.47
61757;BME280;57225;61.460;24.060;2023-04-01T23:09:20;100518.97;;;-4.48;74.11
61757;BME280;57225;61.460;24.060;2023-04-01T23:12:10;100521.06;;;-4.39;73.20
61757;BME280;57225;61.460;24.060;2023-04-01T23:14:58;100519.88;;;-4.52;75.03
61757;BME280;57225;61.460;24.060;2023-04-01T23:18:08;100525.09;;;-4.56;74.80
61757;BME280;57225;61.460;24.060;2023-04-01T23:21:18;100531.75;;;-4.67;75.22
61757;BME280;57225;61.460;24.060;2023-04-01T23:24:30;100533.97;;;-4.69;75.25
61757;BME280;57225;61.460;24.060;2023-04-01T23:30:46;100533.06;;;-4.83;76.19
61757;BME280;57225;61.460;24.060;2023-04-01T23:33:31;100539.88;;;-4.86;76.36
61757;BME280;57225;61.460;24.060;2023-04-01T23:36:15;100529.81;;;-4.85;79.42
61757;BME280;57225;61.460;24.060;2023-04-01T23:39:04;100533.97;;;-4.93;77.43
61757;BME280;57225;61.460;24.060;2023-04-01T23:41:51;100536.47;;;-4.96;77.05
61757;BME280;57225;61.460;24.060;2023-04-01T23:44:37;100523.06;;;-5.11;78.16
61757;BME280;57225;61.460;24.060;2023-04-01T23:47:31;100531.44;;;-5.08;77.83
61757;BME280;57225;61.460;24.060;2023-04-01T23:50:20;100537.50;;;-5.16;78.98
61757;BME280;57225;61.460;24.060;2023-04-01T23:53:34;100533.88;;;-5.06;76.84
61757;BME280;57225;61.460;24.060;2023-04-01T23:56:18;100549.59;;;-5.27;78.67
61757;BME280;57225;61.460;24.060;2023-04-01T23:59:04;100554.22;;;-5.28;80.42
